createdAt,value
2018-06-21T00:02:02.299Z,76.66
2018-06-21T00:04:31.227Z,77.01
2018-06-21T00:07:00.458Z,76.82
2018-06-21T00:09:29.463Z,76.95
2018-06-21T00:11:58.261Z,76.53
2018-06-21T00:14:26.830Z,76.26
2018-06-21T00:16:55.554Z,76.24
2018-06-21T00:19:24.171Z,76.52
2018-06-21T00:21:53.130Z,76.49
2018-06-21T00:24:21.702Z,76.69
2018-06-21T00:26:50.316Z,76.58
2018-06-21T00:29:18.816Z,76.46
2018-06-21T00:31:47.309Z,76.19
2018-06-21T00:34:15.865Z,76.12
2018-06-21T00:36:45.212Z,76.46
2018-06-21T00:39:14.004Z,76.60
2018-06-21T00:41:42.740Z,76.47
2018-06-21T00:44:11.199Z,76.25
2018-06-21T00:46:39.814Z,75.91
2018-06-21T00:49:08.752Z,75.72
2018-06-21T00:51:37.238Z,75.82
2018-06-21T00:54:05.758Z,76.09
2018-06-21T00:56:34.545Z,75.81
2018-06-21T00:59:03.150Z,75.68
2018-06-21T01:01:31.645Z,75.79
2018-06-21T01:04:00.599Z,75.79
2018-06-21T01:06:29.200Z,75.73
2018-06-21T01:08:57.726Z,75.78
2018-06-21T01:11:26.341Z,75.30
2018-06-21T01:13:55.179Z,75.41
2018-06-21T01:16:23.635Z,75.38
2018-06-21T01:18:52.138Z,75.96
2018-06-21T01:21:21.243Z,75.56
2018-06-21T01:23:50.106Z,75.82
2018-06-21T01:26:18.618Z,75.66
2018-06-21T01:28:47.388Z,75.57
2018-06-21T01:31:16.075Z,75.73
2018-06-21T01:33:44.564Z,75.57
2018-06-21T01:36:13.106Z,75.31
2018-06-21T01:38:42.154Z,75.62
2018-06-21T01:41:10.642Z,75.67
2018-06-21T01:43:39.163Z,75.81
2018-06-21T01:46:07.910Z,76.16
2018-06-21T01:48:36.587Z,75.88
2018-06-21T01:51:05.131Z,76.24
2018-06-21T01:53:33.599Z,76.04
2018-06-21T01:56:02.285Z,76.71
2018-06-21T01:58:31.315Z,76.78
2018-06-21T02:00:59.798Z,76.67
2018-06-21T02:03:28.382Z,76.98
2018-06-21T02:05:57.042Z,77.18
2018-06-21T02:08:25.509Z,77.00
2018-06-21T02:10:54.014Z,77.45
2018-06-21T02:13:22.686Z,77.40
2018-06-21T02:15:51.206Z,77.54
2018-06-21T02:18:19.725Z,77.66
2018-06-21T02:20:48.775Z,77.58
2018-06-21T02:23:17.449Z,78.00
2018-06-21T02:25:45.962Z,77.64
2018-06-21T02:28:14.465Z,77.89
2018-06-21T02:30:46.226Z,78.15
2018-06-21T02:33:14.958Z,77.73
2018-06-21T02:35:44.079Z,78.05
2018-06-21T02:38:12.666Z,78.28
2018-06-21T02:40:41.423Z,78.55
2018-06-21T02:43:09.907Z,78.31
2018-06-21T02:45:38.500Z,78.67
2018-06-21T02:48:07.102Z,78.42
2018-06-21T02:50:36.142Z,78.27
2018-06-21T02:53:05.242Z,78.83
2018-06-21T02:55:34.864Z,79.15
2018-06-21T02:58:03.485Z,78.68
2018-06-21T03:00:32.315Z,78.90
2018-06-21T03:03:01.409Z,78.91
2018-06-21T03:05:30.306Z,79.28
2018-06-21T03:07:58.783Z,78.63
2018-06-21T03:10:27.422Z,79.25
2018-06-21T03:12:56.179Z,79.00
2018-06-21T03:15:24.663Z,79.12
2018-06-21T03:17:53.174Z,79.23
2018-06-21T03:20:22.015Z,78.96
2018-06-21T03:22:50.515Z,79.06
2018-06-21T03:25:19.043Z,78.77
2018-06-21T03:27:48.478Z,79.16
2018-06-21T03:30:16.951Z,79.28
2018-06-21T03:32:45.569Z,78.95
2018-06-21T03:35:14.527Z,78.69
2018-06-21T03:37:43.012Z,78.49
2018-06-21T03:40:11.527Z,79.10
2018-06-21T03:42:40.336Z,78.82
2018-06-21T03:45:09.086Z,78.92
2018-06-21T03:47:37.663Z,78.55
2018-06-21T03:50:06.270Z,78.90
2018-06-21T03:52:35.149Z,78.34
2018-06-21T03:55:04.326Z,78.81
2018-06-21T03:57:32.842Z,79.41
2018-06-21T04:00:01.690Z,79.05
2018-06-21T04:02:30.679Z,78.76
2018-06-21T04:05:00.388Z,78.93
2018-06-21T04:07:28.869Z,78.75
2018-06-21T04:09:57.451Z,78.62
2018-06-21T04:12:25.946Z,78.55
2018-06-21T04:14:54.411Z,78.68
2018-06-21T04:17:23.301Z,78.43
2018-06-21T04:19:52.066Z,78.78
2018-06-21T04:22:20.569Z,78.52
2018-06-21T04:24:49.069Z,78.77
2018-06-21T04:27:17.645Z,78.42
2018-06-21T04:29:46.125Z,78.61
2018-06-21T04:32:14.685Z,78.58
2018-06-21T04:34:44.165Z,78.12
2018-06-21T04:37:13.970Z,78.08
2018-06-21T04:39:42.606Z,77.81
2018-06-21T04:42:11.504Z,78.01
2018-06-21T04:44:40.769Z,78.13
2018-06-21T04:47:09.419Z,78.10
2018-06-21T04:49:38.260Z,78.02
2018-06-21T04:52:06.875Z,78.14
2018-06-21T04:54:35.670Z,77.62
2018-06-21T04:57:04.547Z,77.48
2018-06-21T04:59:33.035Z,77.33
2018-06-21T05:02:01.601Z,77.60
2018-06-21T05:04:32.231Z,78.04
2018-06-21T05:07:01.062Z,77.59
2018-06-21T05:09:30.227Z,77.18
2018-06-21T05:11:59.198Z,77.18
2018-06-21T05:14:27.842Z,76.75
2018-06-21T05:16:56.594Z,77.20
2018-06-21T05:19:25.862Z,76.96
2018-06-21T05:21:54.746Z,76.87
2018-06-21T05:24:23.194Z,76.80
2018-06-21T05:26:52.442Z,77.07
2018-06-21T05:29:21.277Z,76.70
2018-06-21T05:31:49.691Z,76.99
2018-06-21T05:34:18.395Z,76.91
2018-06-21T05:36:48.096Z,76.64
2018-06-21T05:39:17.301Z,77.04
2018-06-21T05:41:46.486Z,77.14
2018-06-21T05:44:15.266Z,76.92
2018-06-21T05:46:43.889Z,76.88
2018-06-21T05:49:12.869Z,76.68
2018-06-21T05:51:41.428Z,76.88
2018-06-21T05:54:09.852Z,76.91
2018-06-21T05:56:38.399Z,77.11
2018-06-21T05:59:06.966Z,76.66
2018-06-21T06:01:35.801Z,76.72
2018-06-21T06:04:04.642Z,76.65
2018-06-21T06:06:33.130Z,76.66
2018-06-21T06:09:02.033Z,76.94
2018-06-21T06:11:30.903Z,76.55
2018-06-21T06:13:59.391Z,76.62
2018-06-21T06:16:27.954Z,76.70
2018-06-21T06:18:56.717Z,76.29
2018-06-21T06:21:25.170Z,76.55
2018-06-21T06:23:53.833Z,76.48
2018-06-21T06:26:22.709Z,76.28
2018-06-21T06:28:51.233Z,76.79
2018-06-21T06:31:19.921Z,76.49
2018-06-21T06:33:48.584Z,76.92
2018-06-21T06:36:17.222Z,76.90
2018-06-21T06:38:46.093Z,76.76
2018-06-21T06:41:15.174Z,76.59
2018-06-21T06:43:43.637Z,76.86
2018-06-21T06:46:12.573Z,77.11
2018-06-21T06:48:41.353Z,77.21
2018-06-21T06:51:10.122Z,77.40
2018-06-21T06:53:38.607Z,77.31
2018-06-21T06:56:07.545Z,77.12
2018-06-21T06:58:36.242Z,77.33
2018-06-21T07:01:04.771Z,77.68
2018-06-21T07:03:34.320Z,77.27
2018-06-21T07:06:02.941Z,77.75
2018-06-21T07:08:31.789Z,77.58
2018-06-21T07:11:00.588Z,77.74
2018-06-21T07:13:29.111Z,77.74
2018-06-21T07:15:57.746Z,77.11
2018-06-21T07:18:26.633Z,77.34
2018-06-21T07:20:55.782Z,77.33
2018-06-21T07:23:24.301Z,77.43
2018-06-21T07:25:53.597Z,77.41
2018-06-21T07:28:23.119Z,76.91
2018-06-21T07:30:51.569Z,76.50
2018-06-21T07:33:20.690Z,76.75
2018-06-21T07:35:49.198Z,76.66
2018-06-21T07:38:17.638Z,76.53
2018-06-21T07:40:46.670Z,76.47
2018-06-21T07:43:15.358Z,77.07
2018-06-21T07:45:44.865Z,76.63
2018-06-21T07:48:13.620Z,76.40
2018-06-21T07:50:42.517Z,76.53
2018-06-21T07:53:11.161Z,76.61
2018-06-21T07:55:39.669Z,76.73
2018-06-21T07:58:08.530Z,76.36
2018-06-21T08:00:37.082Z,76.95
2018-06-21T08:03:05.837Z,77.34
2018-06-21T08:05:34.979Z,77.31
2018-06-21T08:08:04.289Z,77.02
2018-06-21T08:10:33.447Z,76.85
2018-06-21T08:13:02.073Z,76.71
2018-06-21T08:15:31.068Z,76.95
2018-06-21T08:18:00.319Z,76.79
2018-06-21T08:20:28.874Z,77.03
2018-06-21T08:22:57.343Z,77.41
2018-06-21T08:25:26.102Z,77.20
2018-06-21T08:27:54.585Z,77.17
2018-06-21T08:30:23.073Z,77.17
2018-06-21T08:32:52.417Z,77.41
2018-06-21T08:35:20.961Z,77.30
2018-06-21T08:37:49.400Z,77.48
2018-06-21T08:40:18.186Z,78.08
2018-06-21T08:42:47.413Z,77.48
2018-06-21T08:45:15.881Z,77.32
2018-06-21T08:47:44.759Z,77.43
2018-06-21T08:50:13.678Z,77.72
2018-06-21T08:52:42.262Z,77.99
2018-06-21T08:55:11.298Z,78.00
2018-06-21T08:57:40.249Z,78.33
2018-06-21T09:00:08.766Z,77.93
2018-06-21T09:02:37.308Z,77.23
2018-06-21T09:05:06.397Z,77.20
2018-06-21T09:07:35.118Z,76.88
2018-06-21T09:10:04.849Z,77.11
2018-06-21T09:12:36.721Z,76.41
2018-06-21T09:15:06.798Z,75.58
2018-06-21T09:17:35.567Z,75.31
2018-06-21T09:20:05.139Z,75.50
2018-06-21T09:22:33.798Z,75.63
2018-06-21T09:25:03.302Z,75.03
2018-06-21T09:27:32.345Z,74.38
2018-06-21T09:30:01.401Z,74.41
2018-06-21T09:32:30.849Z,73.95
2018-06-21T09:34:59.413Z,74.45
2018-06-21T09:37:32.982Z,73.29
2018-06-21T09:40:07.157Z,71.64
2018-06-21T09:42:40.986Z,70.70
2018-06-21T09:45:09.643Z,69.87
2018-06-21T09:47:43.545Z,69.14
2018-06-21T09:50:17.172Z,68.81
2018-06-21T09:52:46.533Z,68.26
2018-06-21T09:55:15.616Z,68.18
2018-06-21T09:57:44.102Z,68.00
2018-06-21T10:00:16.742Z,68.10
2018-06-21T10:02:46.155Z,67.27
2018-06-21T10:05:14.608Z,65.79
2018-06-21T10:07:43.069Z,65.59
2018-06-21T10:10:11.850Z,66.14
2018-06-21T10:12:42.744Z,65.39
2018-06-21T10:15:11.192Z,65.26
2018-06-21T10:17:39.938Z,65.12
2018-06-21T10:20:08.704Z,64.92
2018-06-21T10:22:37.141Z,65.31
2018-06-21T10:25:05.673Z,64.80
2018-06-21T10:27:34.221Z,65.42
2018-06-21T10:30:03.829Z,65.06
2018-06-21T10:32:33.700Z,64.74
2018-06-21T10:35:02.383Z,64.59
2018-06-21T10:37:31.043Z,64.50
2018-06-21T10:39:59.957Z,62.91
2018-06-21T10:42:28.581Z,62.41
2018-06-21T10:44:57.144Z,61.67
2018-06-21T10:47:26.197Z,61.99
2018-06-21T10:49:54.641Z,62.75
2018-06-21T10:52:23.109Z,62.40
2018-06-21T10:54:51.901Z,62.93
2018-06-21T10:57:20.342Z,62.80
2018-06-21T10:59:48.797Z,61.80
2018-06-21T11:02:18.704Z,61.35
2018-06-21T11:04:47.339Z,60.64
2018-06-21T11:07:15.894Z,59.83
2018-06-21T11:09:44.869Z,59.35
2018-06-21T11:12:13.554Z,58.97
2018-06-21T11:14:42.026Z,60.20
2018-06-21T11:17:10.850Z,61.09
2018-06-21T11:19:39.468Z,61.08
2018-06-21T11:22:08.445Z,61.50
2018-06-21T11:24:37.006Z,61.84
2018-06-21T11:27:05.452Z,62.04
2018-06-21T11:29:34.519Z,62.26
2018-06-21T11:32:03.042Z,62.36
2018-06-21T11:34:31.479Z,62.21
2018-06-21T11:37:00.113Z,62.54
2018-06-21T11:39:28.884Z,62.34
2018-06-21T11:41:57.298Z,62.31
2018-06-21T11:44:26.043Z,62.03
2018-06-21T11:46:55.357Z,62.42
2018-06-21T11:49:23.802Z,62.79
2018-06-21T11:51:52.257Z,63.18
2018-06-21T11:54:21.130Z,63.39
2018-06-21T11:56:49.922Z,63.57
2018-06-21T11:59:18.547Z,63.30
2018-06-21T12:01:47.162Z,63.72
2018-06-21T12:04:15.710Z,63.05
2018-06-21T12:06:44.299Z,63.47
2018-06-21T12:09:13.036Z,64.34
2018-06-21T12:11:41.989Z,64.99
2018-06-21T12:14:10.704Z,66.19
2018-06-21T12:16:39.585Z,66.29
2018-06-21T12:19:08.263Z,67.64
2018-06-21T12:21:36.742Z,68.34
2018-06-21T12:24:05.673Z,67.99
2018-06-21T12:26:35.034Z,68.51
2018-06-21T12:29:04.337Z,67.80
2018-06-21T12:31:33.638Z,67.57
2018-06-21T12:34:02.426Z,66.76
2018-06-21T12:36:31.112Z,66.74
2018-06-21T12:39:00.555Z,67.11
2018-06-21T12:41:29.096Z,66.52
2018-06-21T12:43:57.577Z,66.04
2018-06-21T12:46:27.114Z,65.78
2018-06-21T12:48:56.274Z,65.26
2018-06-21T12:51:24.755Z,65.27
2018-06-21T12:53:53.645Z,65.17
2018-06-21T12:56:22.387Z,64.41
2018-06-21T12:58:50.978Z,64.25
2018-06-21T13:01:20.009Z,64.12
2018-06-21T13:03:48.631Z,63.81
2018-06-21T13:06:17.094Z,63.60
2018-06-21T13:08:56.882Z,63.19
2018-06-21T13:12:45.358Z,63.15
2018-06-21T13:15:14.087Z,62.07
2018-06-21T13:17:42.785Z,62.18
2018-06-21T13:20:11.231Z,61.80
2018-06-21T13:22:40.019Z,61.57
2018-06-21T13:25:08.525Z,62.00
2018-06-21T13:27:37.210Z,62.37
2018-06-21T13:30:07.557Z,61.73
2018-06-21T13:32:36.199Z,61.40
2018-06-21T13:35:04.962Z,61.41
2018-06-21T13:37:34.120Z,61.35
2018-06-21T13:40:03.402Z,61.77
2018-06-21T13:42:32.038Z,62.44
2018-06-21T13:45:00.934Z,62.85
2018-06-21T13:47:29.880Z,62.90
2018-06-21T13:49:58.305Z,62.99
2018-06-21T13:52:27.225Z,62.98
2018-06-21T13:54:55.665Z,63.61
2018-06-21T13:57:24.110Z,63.68
2018-06-21T13:59:52.862Z,64.26
2018-06-21T14:02:21.278Z,64.13
2018-06-21T14:04:49.712Z,63.62
2018-06-21T14:07:18.633Z,64.23
2018-06-21T14:09:47.149Z,66.75
2018-06-21T14:12:15.565Z,70.77
2018-06-21T14:14:44.409Z,72.30
2018-06-21T14:17:13.037Z,73.55
2018-06-21T14:19:41.576Z,74.53
2018-06-21T14:22:10.143Z,74.55
2018-06-21T14:24:38.762Z,74.72
2018-06-21T14:27:07.466Z,74.83
2018-06-21T14:29:36.026Z,75.02
2018-06-21T14:32:04.502Z,75.05
2018-06-21T14:34:33.019Z,75.03
2018-06-21T14:37:01.453Z,75.39
2018-06-21T14:39:29.875Z,75.62
2018-06-21T14:41:58.660Z,75.30
2018-06-21T14:44:27.443Z,75.26
2018-06-21T14:46:55.850Z,75.67
2018-06-21T14:49:24.558Z,75.52
2018-06-21T14:51:53.232Z,76.13
2018-06-21T14:54:21.788Z,75.84
2018-06-21T14:56:50.317Z,75.73
2018-06-21T14:59:18.932Z,75.21
2018-06-21T15:01:47.609Z,74.69
2018-06-21T15:04:16.046Z,74.04
2018-06-21T15:06:44.900Z,73.61
2018-06-21T15:09:14.341Z,74.05
2018-06-21T15:11:42.900Z,74.19
2018-06-21T15:14:11.690Z,74.25
2018-06-21T15:16:40.462Z,74.16
2018-06-21T15:19:08.980Z,74.26
2018-06-21T15:21:37.826Z,73.87
2018-06-21T15:24:06.385Z,74.51
2018-06-21T15:26:35.067Z,74.13
2018-06-21T15:29:03.752Z,74.97
2018-06-21T15:31:32.224Z,75.15
2018-06-21T15:34:00.782Z,74.94
2018-06-21T15:36:29.323Z,74.80
2018-06-21T15:38:59.329Z,74.67
2018-06-21T15:41:29.221Z,74.85
2018-06-21T15:43:58.229Z,75.00
2018-06-21T15:46:26.694Z,75.05
2018-06-21T15:48:55.213Z,75.11
2018-06-21T15:51:24.077Z,74.98
2018-06-21T15:53:53.837Z,74.67
2018-06-21T15:56:22.382Z,74.23
2018-06-21T15:58:50.801Z,73.86
2018-06-21T16:01:19.324Z,73.86
2018-06-21T16:03:48.793Z,73.97
2018-06-21T16:06:17.267Z,74.18
2018-06-21T16:08:46.129Z,73.90
2018-06-21T16:11:15.058Z,73.87
2018-06-21T16:13:43.610Z,73.15
2018-06-21T16:16:12.056Z,72.83
2018-06-21T16:18:40.634Z,72.98
2018-06-21T16:21:09.053Z,73.02
2018-06-21T16:23:37.474Z,73.03
2018-06-21T16:26:06.374Z,73.21
2018-06-21T16:28:34.890Z,72.96
2018-06-21T16:31:04.059Z,73.02
2018-06-21T16:33:32.594Z,73.28
2018-06-21T16:36:01.437Z,73.27
2018-06-21T16:38:29.901Z,73.20
2018-06-21T16:40:58.432Z,73.29
2018-06-21T16:43:26.885Z,73.49
2018-06-21T16:45:55.313Z,73.80
2018-06-21T16:48:23.759Z,74.24
2018-06-21T16:50:52.628Z,74.78
2018-06-21T16:53:21.134Z,75.22
2018-06-21T16:55:49.733Z,75.36
2018-06-21T16:58:18.345Z,75.52
2018-06-21T17:00:47.233Z,75.68
2018-06-21T17:03:15.697Z,75.67
2018-06-21T17:05:44.270Z,76.41
2018-06-21T17:08:12.782Z,76.44
2018-06-21T17:10:41.257Z,76.54
2018-06-21T17:13:09.710Z,76.82
2018-06-21T17:15:38.654Z,76.93
2018-06-21T17:18:07.906Z,77.08
2018-06-21T17:20:36.402Z,76.98
2018-06-21T17:23:04.881Z,77.33
2018-06-21T17:25:33.798Z,76.82
2018-06-21T17:28:02.634Z,77.40
2018-06-21T17:30:31.043Z,77.52
2018-06-21T17:33:00.121Z,78.14
2018-06-21T17:35:28.627Z,78.23
2018-06-21T17:37:57.058Z,78.36
2018-06-21T17:40:25.529Z,78.53
2018-06-21T17:42:54.333Z,78.33
2018-06-21T17:45:22.808Z,78.15
2018-06-21T17:47:51.274Z,77.50
2018-06-21T17:50:19.821Z,77.75
2018-06-21T17:52:48.246Z,77.59
2018-06-21T17:55:16.935Z,76.96
2018-06-21T17:57:45.598Z,77.20
2018-06-21T18:00:14.497Z,76.81
2018-06-21T18:02:42.991Z,76.93
2018-06-21T18:05:12.658Z,76.98
2018-06-21T18:07:41.405Z,77.20
2018-06-21T18:10:09.862Z,77.29
2018-06-21T18:12:39.242Z,76.84
2018-06-21T18:15:07.874Z,77.11
2018-06-21T18:17:36.437Z,76.88
2018-06-21T18:20:04.993Z,77.05
2018-06-21T18:22:34.593Z,77.25
2018-06-21T18:25:03.127Z,77.04
2018-06-21T18:27:31.557Z,77.28
2018-06-21T18:30:00.095Z,77.13
2018-06-21T18:32:28.951Z,76.79
2018-06-21T18:34:57.362Z,77.12
2018-06-21T18:37:26.229Z,77.13
2018-06-21T18:39:54.899Z,77.61
2018-06-21T18:42:23.404Z,77.08
2018-06-21T18:44:51.945Z,77.37
2018-06-21T18:47:20.515Z,77.44
2018-06-21T18:49:48.990Z,77.18
2018-06-21T18:52:17.406Z,77.88
2018-06-21T18:54:45.958Z,77.92
2018-06-21T18:57:14.900Z,77.16
2018-06-21T18:59:43.302Z,77.65
2018-06-21T19:02:11.890Z,77.75
2018-06-21T19:04:40.817Z,77.46
2018-06-21T19:07:14.686Z,76.84
2018-06-21T19:09:48.862Z,77.14
2018-06-21T19:12:17.433Z,76.48
2018-06-21T19:14:46.326Z,76.95
2018-06-21T19:17:14.745Z,76.76
2018-06-21T19:19:43.238Z,76.74
2018-06-21T19:22:11.701Z,76.96
2018-06-21T19:24:40.705Z,77.20
2018-06-21T19:27:09.773Z,77.05
2018-06-21T19:29:39.094Z,77.18
2018-06-21T19:32:07.501Z,77.23
2018-06-21T19:34:36.146Z,77.80
2018-06-21T19:37:04.691Z,77.24
2018-06-21T19:39:33.145Z,77.44
2018-06-21T19:42:01.884Z,77.41
2018-06-21T19:44:30.545Z,77.58
2018-06-21T19:46:58.998Z,77.59
2018-06-21T19:49:27.466Z,77.40
2018-06-21T19:51:56.302Z,77.53
2018-06-21T19:54:24.731Z,77.59
2018-06-21T19:56:53.577Z,77.30
2018-06-21T19:59:22.469Z,77.72
2018-06-21T20:01:51.508Z,77.67
2018-06-21T20:04:20.111Z,78.01
2018-06-21T20:06:49.561Z,77.95
2018-06-21T20:09:18.505Z,78.24
2018-06-21T20:11:47.593Z,78.00
2018-06-21T20:14:16.115Z,77.96
2018-06-21T20:16:44.993Z,78.23
2018-06-21T20:19:19.009Z,78.42
2018-06-21T20:21:47.546Z,78.17
2018-06-21T20:24:16.113Z,78.52
2018-06-21T20:26:44.583Z,78.83
2018-06-21T20:29:19.677Z,78.59
2018-06-21T20:31:48.560Z,78.53
2018-06-21T20:34:16.969Z,78.52
2018-06-21T20:36:46.045Z,78.45
2018-06-21T20:39:14.890Z,78.29
2018-06-21T20:41:43.622Z,78.46
2018-06-21T20:44:12.053Z,78.05
2018-06-21T20:46:41.096Z,78.08
2018-06-21T20:49:09.606Z,78.48
2018-06-21T20:51:38.097Z,78.83
2018-06-21T20:54:07.269Z,78.46
2018-06-21T20:56:35.941Z,78.52
2018-06-21T20:59:04.509Z,78.07
2018-06-21T21:01:39.646Z,78.16
2018-06-21T21:04:08.521Z,78.54
2018-06-21T21:06:36.936Z,78.20
2018-06-21T21:09:07.360Z,78.23
2018-06-21T21:11:35.846Z,78.49
2018-06-21T21:14:04.531Z,78.08
2018-06-21T21:16:33.110Z,78.17
2018-06-21T21:19:01.621Z,77.82
2018-06-21T21:21:30.197Z,77.79
2018-06-21T21:23:58.717Z,78.08
2018-06-21T21:26:27.217Z,78.21
2018-06-21T21:28:55.646Z,77.80
2018-06-21T21:31:24.098Z,78.08
2018-06-21T21:33:52.599Z,77.78
2018-06-21T21:36:21.097Z,77.79
2018-06-21T21:38:49.546Z,77.65
2018-06-21T21:41:18.049Z,77.72
2018-06-21T21:43:46.807Z,77.70
2018-06-21T21:46:18.129Z,77.82
2018-06-21T21:48:46.669Z,78.08
2018-06-21T21:51:15.208Z,77.80
2018-06-21T21:53:43.982Z,77.71
2018-06-21T21:56:12.969Z,77.47
2018-06-21T21:58:41.584Z,77.75
2018-06-21T22:01:10.414Z,77.96
2018-06-21T22:03:39.237Z,77.66
2018-06-21T22:06:07.801Z,77.55
2018-06-21T22:08:36.413Z,78.03
2018-06-21T22:11:05.954Z,77.68
2018-06-21T22:13:35.303Z,78.01
2018-06-21T22:16:04.329Z,77.91
2018-06-21T22:18:33.498Z,78.37
2018-06-21T22:21:01.963Z,78.47
2018-06-21T22:23:30.666Z,78.31
2018-06-21T22:26:00.549Z,77.99
2018-06-21T22:28:28.985Z,78.09
2018-06-21T22:30:58.337Z,78.14
2018-06-21T22:33:26.839Z,78.21
2018-06-21T22:35:56.153Z,78.51
2018-06-21T22:38:24.571Z,78.18
2018-06-21T22:40:53.177Z,78.32
2018-06-21T22:43:21.703Z,78.56
2018-06-21T22:45:50.145Z,78.13
2018-06-21T22:48:19.077Z,78.03
2018-06-21T22:50:47.770Z,78.35
2018-06-21T22:53:16.169Z,77.98
2018-06-21T22:55:45.101Z,78.81
2018-06-21T22:58:13.695Z,78.88
2018-06-21T23:00:42.789Z,78.74
2018-06-21T23:03:11.777Z,78.85
2018-06-21T23:05:40.258Z,78.88
2018-06-21T23:08:08.867Z,79.25
2018-06-21T23:10:37.529Z,79.17
2018-06-21T23:13:05.961Z,79.18
2018-06-21T23:15:34.605Z,79.42
2018-06-21T23:18:03.555Z,79.74
2018-06-21T23:20:32.019Z,79.89
2018-06-21T23:23:00.479Z,80.07
2018-06-21T23:25:36.021Z,80.16
2018-06-21T23:28:04.481Z,80.16
2018-06-21T23:30:34.270Z,79.93
2018-06-21T23:33:03.263Z,79.76
2018-06-21T23:35:31.673Z,80.08
2018-06-21T23:38:00.086Z,79.83
2018-06-21T23:40:28.743Z,80.10
2018-06-21T23:42:57.168Z,80.20
2018-06-21T23:45:26.705Z,80.49
2018-06-21T23:47:55.413Z,80.91
2018-06-21T23:50:24.180Z,80.92
2018-06-21T23:52:52.626Z,80.76
2018-06-21T23:55:21.491Z,80.82
2018-06-21T23:57:50.229Z,80.71
